sensor_id;sensor_type;location;lat;lon;timestamp;temperature;humidity
3504;DHT22;1766;53.490;10.174;2024-03-08T00:01:03;9.60;42.60
3504;DHT22;1766;53.490;10.174;2024-03-08T00:03:07;9.60;42.70
3504;DHT22;1766;53.490;10.174;2024-03-08T00:05:11;9.50;42.70
3504;DHT22;1766;53.490;10.174;2024-03-08T00:07:13;9.50;42.70
3504;DHT22;1766;53.490;10.174;2024-03-08T00:09:15;9.50;42.70
3504;DHT22;1766;53.490;10.174;2024-03-08T00:11:18;9.40;42.70
3504;DHT22;1766;53.490;10.174;2024-03-08T00:13:21;9.40;42.60
3504;DHT22;1766;53.490;10.174;2024-03-08T00:15:23;9.40;42.80
3504;DHT22;1766;53.490;10.174;2024-03-08T00:17:24;9.40;42.80
3504;DHT22;1766;53.490;10.174;2024-03-08T00:19:27;9.40;42.80
3504;DHT22;1766;53.490;10.174;2024-03-08T00:21:29;9.40;42.80
3504;DHT22;1766;53.490;10.174;2024-03-08T00:23:31;9.30;42.80
3504;DHT22;1766;53.490;10.174;2024-03-08T00:25:33;9.30;42.80
3504;DHT22;1766;53.490;10.174;2024-03-08T00:27:37;9.30;42.90
3504;DHT22;1766;53.490;10.174;2024-03-08T00:29:39;9.30;43.00
3504;DHT22;1766;53.490;10.174;2024-03-08T00:31:41;9.30;43.00
3504;DHT22;1766;53.490;10.174;2024-03-08T00:33:42;9.30;43.00
3504;DHT22;1766;53.490;10.174;2024-03-08T00:35:44;9.20;42.80
3504;DHT22;1766;53.490;10.174;2024-03-08T00:37:46;9.20;43.00
3504;DHT22;1766;53.490;10.174;2024-03-08T00:39:48;9.20;42.70
3504;DHT22;1766;53.490;10.174;2024-03-08T00:41:50;9.20;43.00
3504;DHT22;1766;53.490;10.174;2024-03-08T00:43:54;9.20;43.00
3504;DHT22;1766;53.490;10.174;2024-03-08T00:45:56;9.10;43.00
3504;DHT22;1766;53.490;10.174;2024-03-08T00:47:58;9.10;43.00
3504;DHT22;1766;53.490;10.174;2024-03-08T00:50:00;9.00;42.90
3504;DHT22;1766;53.490;10.174;2024-03-08T00:52:04;9.00;43.00
3504;DHT22;1766;53.490;10.174;2024-03-08T00:54:08;8.90;43.00
3504;DHT22;1766;53.490;10.174;2024-03-08T00:56:10;8.90;43.00
3504;DHT22;1766;53.490;10.174;2024-03-08T00:58:12;8.90;43.10
3504;DHT22;1766;53.490;10.174;2024-03-08T01:00:16;8.90;43.10
3504;DHT22;1766;53.490;10.174;2024-03-08T01:02:18;8.90;43.80
3504;DHT22;1766;53.490;10.174;2024-03-08T01:04:19;8.90;43.10
3504;DHT22;1766;53.490;10.174;2024-03-08T01:06:21;8.90;43.20
3504;DHT22;1766;53.490;10.174;2024-03-08T01:08:24;8.80;43.10
3504;DHT22;1766;53.490;10.174;2024-03-08T01:10:26;8.80;43.20
3504;DHT22;1766;53.490;10.174;2024-03-08T01:12:28;8.70;43.10
3504;DHT22;1766;53.490;10.174;2024-03-08T01:14:30;8.80;43.30
3504;DHT22;1766;53.490;10.174;2024-03-08T01:16:33;8.80;43.30
3504;DHT22;1766;53.490;10.174;2024-03-08T01:18:35;8.70;43.30
3504;DHT22;1766;53.490;10.174;2024-03-08T01:20:36;8.70;43.30
3504;DHT22;1766;53.490;10.174;2024-03-08T01:22:40;8.70;43.40
3504;DHT22;1766;53.490;10.174;2024-03-08T01:24:42;7.00;42.10
3504;DHT22;1766;53.490;10.174;2024-03-08T01:26:44;8.70;43.40
3504;DHT22;1766;53.490;10.174;2024-03-08T01:28:49;8.70;43.40
3504;DHT22;1766;53.490;10.174;2024-03-08T01:30:51;8.70;43.60
3504;DHT22;1766;53.490;10.174;2024-03-08T01:32:57;8.70;43.40
3504;DHT22;1766;53.490;10.174;2024-03-08T01:34:59;8.60;43.40
3504;DHT22;1766;53.490;10.174;2024-03-08T01:37:01;8.60;43.40
3504;DHT22;1766;53.490;10.174;2024-03-08T01:39:03;8.60;43.50
3504;DHT22;1766;53.490;10.174;2024-03-08T01:41:08;8.60;43.50
3504;DHT22;1766;53.490;10.174;2024-03-08T01:43:18;8.60;43.50
3504;DHT22;1766;53.490;10.174;2024-03-08T01:45:21;8.60;43.60
3504;DHT22;1766;53.490;10.174;2024-03-08T01:47:23;8.60;43.60
3504;DHT22;1766;53.490;10.174;2024-03-08T01:49:26;8.60;43.60
3504;DHT22;1766;53.490;10.174;2024-03-08T01:51:29;8.60;43.70
3504;DHT22;1766;53.490;10.174;2024-03-08T01:53:32;8.50;43.60
3504;DHT22;1766;53.490;10.174;2024-03-08T01:55:34;8.50;43.70
3504;DHT22;1766;53.490;10.174;2024-03-08T01:57:37;8.50;43.70
3504;DHT22;1766;53.490;10.174;2024-03-08T01:59:39;8.40;43.60
3504;DHT22;1766;53.490;10.174;2024-03-08T02:01:42;8.40;43.70
3504;DHT22;1766;53.490;10.174;2024-03-08T02:03:45;8.40;43.70
3504;DHT22;1766;53.490;10.174;2024-03-08T02:05:48;8.40;43.70
3504;DHT22;1766;53.490;10.174;2024-03-08T02:07:50;8.40;43.70
3504;DHT22;1766;53.490;10.174;2024-03-08T02:09:52;8.40;43.70
3504;DHT22;1766;53.490;10.174;2024-03-08T02:11:55;8.30;43.70
3504;DHT22;1766;53.490;10.174;2024-03-08T02:13:57;8.30;43.90
3504;DHT22;1766;53.490;10.174;2024-03-08T02:16:00;8.30;43.80
3504;DHT22;1766;53.490;10.174;2024-03-08T02:18:01;8.30;43.70
3504;DHT22;1766;53.490;10.174;2024-03-08T02:20:04;8.30;43.90
3504;DHT22;1766;53.490;10.174;2024-03-08T02:22:07;8.20;43.90
3504;DHT22;1766;53.490;10.174;2024-03-08T02:24:09;8.30;43.90
3504;DHT22;1766;53.490;10.174;2024-03-08T02:26:11;8.30;43.90
3504;DHT22;1766;53.490;10.174;2024-03-08T02:28:13;8.20;43.90
3504;DHT22;1766;53.490;10.174;2024-03-08T02:30:15;8.20;44.00
3504;DHT22;1766;53.490;10.174;2024-03-08T02:32:18;8.20;44.00
3504;DHT22;1766;53.490;10.174;2024-03-08T02:34:18;8.20;44.00
3504;DHT22;1766;53.490;10.174;2024-03-08T02:36:21;8.20;44.10
3504;DHT22;1766;53.490;10.174;2024-03-08T02:38:24;8.20;44.10
3504;DHT22;1766;53.490;10.174;2024-03-08T02:40:26;8.20;44.10
3504;DHT22;1766;53.490;10.174;2024-03-08T02:42:28;8.20;44.10
3504;DHT22;1766;53.490;10.174;2024-03-08T02:44:30;8.20;44.10
3504;DHT22;1766;53.490;10.174;2024-03-08T02:46:31;8.10;44.00
3504;DHT22;1766;53.490;10.174;2024-03-08T02:48:33;8.20;44.20
3504;DHT22;1766;53.490;10.174;2024-03-08T02:50:35;8.10;44.10
3504;DHT22;1766;53.490;10.174;2024-03-08T02:52:37;8.10;44.10
3504;DHT22;1766;53.490;10.174;2024-03-08T02:54:39;8.10;44.10
3504;DHT22;1766;53.490;10.174;2024-03-08T02:56:41;8.10;44.20
3504;DHT22;1766;53.490;10.174;2024-03-08T02:58:43;8.10;44.20
3504;DHT22;1766;53.490;10.174;2024-03-08T03:00:49;8.10;44.20
3504;DHT22;1766;53.490;10.174;2024-03-08T03:02:51;8.10;44.30
3504;DHT22;1766;53.490;10.174;2024-03-08T03:04:54;8.10;44.30
3504;DHT22;1766;53.490;10.174;2024-03-08T03:06:56;8.10;44.30
3504;DHT22;1766;53.490;10.174;2024-03-08T03:08:58;8.00;44.10
3504;DHT22;1766;53.490;10.174;2024-03-08T03:11:01;8.00;44.10
3504;DHT22;1766;53.490;10.174;2024-03-08T03:13:03;8.00;44.30
3504;DHT22;1766;53.490;10.174;2024-03-08T03:15:06;8.00;44.30
3504;DHT22;1766;53.490;10.174;2024-03-08T03:17:07;8.00;44.30
3504;DHT22;1766;53.490;10.174;2024-03-08T03:19:10;8.00;44.30
3504;DHT22;1766;53.490;10.174;2024-03-08T03:21:13;8.00;44.30
3504;DHT22;1766;53.490;10.174;2024-03-08T03:23:15;8.00;44.40
3504;DHT22;1766;53.490;10.174;2024-03-08T03:25:21;8.00;44.40
3504;DHT22;1766;53.490;10.174;2024-03-08T03:27:27;8.00;44.50
3504;DHT22;1766;53.490;10.174;2024-03-08T03:29:30;7.90;44.40
3504;DHT22;1766;53.490;10.174;2024-03-08T03:31:32;7.90;44.40
3504;DHT22;1766;53.490;10.174;2024-03-08T03:33:34;7.90;44.50
3504;DHT22;1766;53.490;10.174;2024-03-08T03:35:37;7.90;44.60
3504;DHT22;1766;53.490;10.174;2024-03-08T03:37:39;7.90;44.60
3504;DHT22;1766;53.490;10.174;2024-03-08T03:39:43;7.90;44.60
3504;DHT22;1766;53.490;10.174;2024-03-08T03:41:49;7.90;44.60
3504;DHT22;1766;53.490;10.174;2024-03-08T03:43:53;7.90;44.60
3504;DHT22;1766;53.490;10.174;2024-03-08T03:45:55;7.90;44.60
3504;DHT22;1766;53.490;10.174;2024-03-08T03:47:56;7.80;44.50
3504;DHT22;1766;53.490;10.174;2024-03-08T03:50:00;7.80;44.60
3504;DHT22;1766;53.490;10.174;2024-03-08T03:52:03;7.80;44.70
3504;DHT22;1766;53.490;10.174;2024-03-08T03:54:06;7.80;44.80
3504;DHT22;1766;53.490;10.174;2024-03-08T03:56:08;7.80;44.60
3504;DHT22;1766;53.490;10.174;2024-03-08T03:58:10;7.80;44.60
3504;DHT22;1766;53.490;10.174;2024-03-08T04:00:13;7.80;44.70
3504;DHT22;1766;53.490;10.174;2024-03-08T04:02:15;7.80;44.90
3504;DHT22;1766;53.490;10.174;2024-03-08T04:04:18;7.80;44.90
3504;DHT22;1766;53.490;10.174;2024-03-08T04:06:19;7.80;44.80
3504;DHT22;1766;53.490;10.174;2024-03-08T04:08:23;7.80;44.80
3504;DHT22;1766;53.490;10.174;2024-03-08T04:10:24;7.80;44.80
3504;DHT22;1766;53.490;10.174;2024-03-08T04:12:26;7.80;44.80
3504;DHT22;1766;53.490;10.174;2024-03-08T04:14:29;7.80;44.80
3504;DHT22;1766;53.490;10.174;2024-03-08T04:16:31;7.80;44.80
3504;DHT22;1766;53.490;10.174;2024-03-08T04:18:34;7.80;44.80
3504;DHT22;1766;53.490;10.174;2024-03-08T04:20:38;7.80;44.80
3504;DHT22;1766;53.490;10.174;2024-03-08T04:22:40;7.80;44.80
3504;DHT22;1766;53.490;10.174;2024-03-08T04:24:44;7.70;44.80
3504;DHT22;1766;53.490;10.174;2024-03-08T04:26:46;7.70;44.80
3504;DHT22;1766;53.490;10.174;2024-03-08T04:28:48;7.70;44.80
3504;DHT22;1766;53.490;10.174;2024-03-08T04:30:50;7.70;44.80
3504;DHT22;1766;53.490;10.174;2024-03-08T04:32:53;7.70;44.80
3504;DHT22;1766;53.490;10.174;2024-03-08T04:34:55;7.70;44.80
3504;DHT22;1766;53.490;10.174;2024-03-08T04:36:57;7.70;44.90
3504;DHT22;1766;53.490;10.174;2024-03-08T04:38:59;7.70;44.90
3504;DHT22;1766;53.490;10.174;2024-03-08T04:41:01;7.70;44.90
3504;DHT22;1766;53.490;10.174;2024-03-08T04:43:03;7.70;44.90
3504;DHT22;1766;53.490;10.174;2024-03-08T04:45:05;7.60;45.00
3504;DHT22;1766;53.490;10.174;2024-03-08T04:47:08;7.60;45.10
3504;DHT22;1766;53.490;10.174;2024-03-08T04:49:11;7.60;44.90
3504;DHT22;1766;53.490;10.174;2024-03-08T04:51:13;7.60;45.10
3504;DHT22;1766;53.490;10.174;2024-03-08T04:53:16;7.50;45.00
3504;DHT22;1766;53.490;10.174;2024-03-08T04:55:18;7.60;45.10
3504;DHT22;1766;53.490;10.174;2024-03-08T04:57:21;7.50;45.00
3504;DHT22;1766;53.490;10.174;2024-03-08T04:59:23;7.50;45.10
3504;DHT22;1766;53.490;10.174;2024-03-08T05:01:25;7.50;45.10
3504;DHT22;1766;53.490;10.174;2024-03-08T05:03:27;7.40;45.10
3504;DHT22;1766;53.490;10.174;2024-03-08T05:05:29;7.40;45.10
3504;DHT22;1766;53.490;10.174;2024-03-08T05:07:31;7.40;45.20
3504;DHT22;1766;53.490;10.174;2024-03-08T05:09:33;7.40;45.30
3504;DHT22;1766;53.490;10.174;2024-03-08T05:11:36;7.40;45.30
3504;DHT22;1766;53.490;10.174;2024-03-08T05:13:37;7.40;45.30
3504;DHT22;1766;53.490;10.174;2024-03-08T05:15:39;7.40;45.40
3504;DHT22;1766;53.490;10.174;2024-03-08T05:17:41;7.40;45.30
3504;DHT22;1766;53.490;10.174;2024-03-08T05:19:43;7.50;46.30
3504;DHT22;1766;53.490;10.174;2024-03-08T05:21:47;8.10;47.60
3504;DHT22;1766;53.490;10.174;2024-03-08T05:23:50;8.60;47.50
3504;DHT22;1766;53.490;10.174;2024-03-08T05:25:51;9.10;47.40
3504;DHT22;1766;53.490;10.174;2024-03-08T05:27:53;9.50;47.20
3504;DHT22;1766;53.490;10.174;2024-03-08T05:29:56;10.00;46.80
3504;DHT22;1766;53.490;10.174;2024-03-08T05:31:58;10.30;46.30
3504;DHT22;1766;53.490;10.174;2024-03-08T05:33:59;10.60;46.40
3504;DHT22;1766;53.490;10.174;2024-03-08T05:36:01;10.80;46.40
3504;DHT22;1766;53.490;10.174;2024-03-08T05:38:05;11.00;46.20
3504;DHT22;1766;53.490;10.174;2024-03-08T05:40:08;11.00;45.70
3504;DHT22;1766;53.490;10.174;2024-03-08T05:42:10;11.10;46.10
3504;DHT22;1766;53.490;10.174;2024-03-08T05:44:13;11.20;45.90
3504;DHT22;1766;53.490;10.174;2024-03-08T05:46:17;11.20;45.50
3504;DHT22;1766;53.490;10.174;2024-03-08T05:48:20;11.10;45.40
3504;DHT22;1766;53.490;10.174;2024-03-08T05:50:22;11.10;45.40
3504;DHT22;1766;53.490;10.174;2024-03-08T05:52:24;11.10;45.50
3504;DHT22;1766;53.490;10.174;2024-03-08T05:54:28;10.90;44.50
3504;DHT22;1766;53.490;10.174;2024-03-08T05:56:30;10.60;43.90
3504;DHT22;1766;53.490;10.174;2024-03-08T05:58:32;10.20;43.60
3504;DHT22;1766;53.490;10.174;2024-03-08T06:00:34;9.80;44.40
3504;DHT22;1766;53.490;10.174;2024-03-08T06:02:37;9.40;44.30
3504;DHT22;1766;53.490;10.174;2024-03-08T06:04:41;9.10;44.40
3504;DHT22;1766;53.490;10.174;2024-03-08T06:06:43;8.80;44.50
3504;DHT22;1766;53.490;10.174;2024-03-08T06:08:44;8.60;44.70
3504;DHT22;1766;53.490;10.174;2024-03-08T06:10:49;8.50;44.70
3504;DHT22;1766;53.490;10.174;2024-03-08T06:12:53;8.30;44.80
3504;DHT22;1766;53.490;10.174;2024-03-08T06:14:55;8.20;44.80
3504;DHT22;1766;53.490;10.174;2024-03-08T06:16:57;8.10;44.80
3504;DHT22;1766;53.490;10.174;2024-03-08T06:18:59;8.00;44.80
3504;DHT22;1766;53.490;10.174;2024-03-08T06:21:02;7.90;44.80
3504;DHT22;1766;53.490;10.174;2024-03-08T06:23:05;7.80;44.90
3504;DHT22;1766;53.490;10.174;2024-03-08T06:25:08;7.80;44.90
3504;DHT22;1766;53.490;10.174;2024-03-08T06:27:12;8.80;45.80
3504;DHT22;1766;53.490;10.174;2024-03-08T06:29:14;7.70;44.90
3504;DHT22;1766;53.490;10.174;2024-03-08T06:31:16;7.60;44.90
3504;DHT22;1766;53.490;10.174;2024-03-08T06:33:18;7.60;44.90
3504;DHT22;1766;53.490;10.174;2024-03-08T06:35:20;7.50;44.90
3504;DHT22;1766;53.490;10.174;2024-03-08T06:37:22;7.50;44.90
3504;DHT22;1766;53.490;10.174;2024-03-08T06:39:24;7.50;44.90
3504;DHT22;1766;53.490;10.174;2024-03-08T06:41:26;7.50;45.10
3504;DHT22;1766;53.490;10.174;2024-03-08T06:43:29;7.50;45.20
3504;DHT22;1766;53.490;10.174;2024-03-08T06:45:34;7.60;45.40
3504;DHT22;1766;53.490;10.174;2024-03-08T06:47:38;7.70;45.40
3504;DHT22;1766;53.490;10.174;2024-03-08T06:49:42;7.70;45.30
3504;DHT22;1766;53.490;10.174;2024-03-08T06:51:43;7.80;45.40
3504;DHT22;1766;53.490;10.174;2024-03-08T06:53:45;7.80;45.40
3504;DHT22;1766;53.490;10.174;2024-03-08T06:55:47;7.80;45.30
3504;DHT22;1766;53.490;10.174;2024-03-08T06:57:49;7.80;45.30
3504;DHT22;1766;53.490;10.174;2024-03-08T06:59:52;7.80;45.30
3504;DHT22;1766;53.490;10.174;2024-03-08T07:01:54;7.80;45.20
3504;DHT22;1766;53.490;10.174;2024-03-08T07:03:56;7.90;45.40
3504;DHT22;1766;53.490;10.174;2024-03-08T07:05:58;7.80;45.30
3504;DHT22;1766;53.490;10.174;2024-03-08T07:08:02;7.80;45.40
3504;DHT22;1766;53.490;10.174;2024-03-08T07:10:04;7.80;45.50
3504;DHT22;1766;53.490;10.174;2024-03-08T07:12:11;8.60;46.20
3504;DHT22;1766;53.490;10.174;2024-03-08T07:14:14;7.80;45.40
3504;DHT22;1766;53.490;10.174;2024-03-08T07:16:17;7.80;45.50
3504;DHT22;1766;53.490;10.174;2024-03-08T07:18:19;7.90;45.70
3504;DHT22;1766;53.490;10.174;2024-03-08T07:20:22;7.90;45.60
3504;DHT22;1766;53.490;10.174;2024-03-08T07:22:23;7.90;45.50
3504;DHT22;1766;53.490;10.174;2024-03-08T07:24:25;7.90;45.60
3504;DHT22;1766;53.490;10.174;2024-03-08T07:26:38;8.00;45.70
3504;DHT22;1766;53.490;10.174;2024-03-08T07:28:40;8.00;45.60
3504;DHT22;1766;53.490;10.174;2024-03-08T07:30:42;8.00;45.60
3504;DHT22;1766;53.490;10.174;2024-03-08T07:32:59;8.10;45.70
3504;DHT22;1766;53.490;10.174;2024-03-08T07:35:03;8.10;45.80
3504;DHT22;1766;53.490;10.174;2024-03-08T07:37:06;8.10;45.80
3504;DHT22;1766;53.490;10.174;2024-03-08T07:39:11;8.20;45.80
3504;DHT22;1766;53.490;10.174;2024-03-08T07:41:15;8.20;45.80
3504;DHT22;1766;53.490;10.174;2024-03-08T07:43:17;8.20;45.80
3504;DHT22;1766;53.490;10.174;2024-03-08T07:45:19;8.30;45.80
3504;DHT22;1766;53.490;10.174;2024-03-08T07:47:22;8.30;45.80
3504;DHT22;1766;53.490;10.174;2024-03-08T07:49:25;8.40;46.50
3504;DHT22;1766;53.490;10.174;2024-03-08T07:51:27;8.40;45.90
3504;DHT22;1766;53.490;10.174;2024-03-08T07:53:29;8.40;45.90
3504;DHT22;1766;53.490;10.174;2024-03-08T07:55:31;8.50;46.00
3504;DHT22;1766;53.490;10.174;2024-03-08T07:57:33;8.50;46.10
3504;DHT22;1766;53.490;10.174;2024-03-08T07:59:35;8.60;46.00
3504;DHT22;1766;53.490;10.174;2024-03-08T08:01:37;8.60;46.00
3504;DHT22;1766;53.490;10.174;2024-03-08T08:03:39;8.60;46.10
3504;DHT22;1766;53.490;10.174;2024-03-08T08:05:43;8.80;46.20
3504;DHT22;1766;53.490;10.174;2024-03-08T08:07:46;8.80;46.10
3504;DHT22;1766;53.490;10.174;2024-03-08T08:09:48;8.90;46.10
3504;DHT22;1766;53.490;10.174;2024-03-08T08:11:49;8.90;46.10
3504;DHT22;1766;53.490;10.174;2024-03-08T08:13:51;9.00;46.20
3504;DHT22;1766;53.490;10.174;2024-03-08T08:15:55;9.10;46.20
3504;DHT22;1766;53.490;10.174;2024-03-08T08:17:57;9.10;46.00
3504;DHT22;1766;53.490;10.174;2024-03-08T08:19:59;9.20;46.20
3504;DHT22;1766;53.490;10.174;2024-03-08T08:22:02;9.30;46.20
3504;DHT22;1766;53.490;10.174;2024-03-08T08:24:04;9.40;46.20
3504;DHT22;1766;53.490;10.174;2024-03-08T08:26:07;9.50;46.20
3504;DHT22;1766;53.490;10.174;2024-03-08T08:28:09;9.60;46.30
3504;DHT22;1766;53.490;10.174;2024-03-08T08:30:11;9.70;46.20
3504;DHT22;1766;53.490;10.174;2024-03-08T08:32:12;9.80;46.40
3504;DHT22;1766;53.490;10.174;2024-03-08T08:34:15;9.90;46.20
3504;DHT22;1766;53.490;10.174;2024-03-08T08:36:17;10.00;45.40
3504;DHT22;1766;53.490;10.174;2024-03-08T08:38:21;10.10;45.30
3504;DHT22;1766;53.490;10.174;2024-03-08T08:40:23;10.20;45.40
3504;DHT22;1766;53.490;10.174;2024-03-08T08:42:26;10.40;45.20
3504;DHT22;1766;53.490;10.174;2024-03-08T08:44:29;10.50;45.30
3504;DHT22;1766;53.490;10.174;2024-03-08T08:46:31;10.50;45.20
3504;DHT22;1766;53.490;10.174;2024-03-08T08:48:33;10.70;45.30
3504;DHT22;1766;53.490;10.174;2024-03-08T08:50:35;10.80;45.30
3504;DHT22;1766;53.490;10.174;2024-03-08T08:52:37;10.90;45.20
3504;DHT22;1766;53.490;10.174;2024-03-08T08:54:40;11.00;45.10
3504;DHT22;1766;53.490;10.174;2024-03-08T08:56:42;11.10;45.00
3504;DHT22;1766;53.490;10.174;2024-03-08T08:58:45;11.30;45.60
3504;DHT22;1766;53.490;10.174;2024-03-08T09:00:47;11.40;45.10
3504;DHT22;1766;53.490;10.174;2024-03-08T09:02:50;11.60;45.10
3504;DHT22;1766;53.490;10.174;2024-03-08T09:04:54;11.70;44.90
3504;DHT22;1766;53.490;10.174;2024-03-08T09:06:55;11.80;44.80
3504;DHT22;1766;53.490;10.174;2024-03-08T09:08:57;12.00;44.70
3504;DHT22;1766;53.490;10.174;2024-03-08T09:11:00;12.10;44.60
3504;DHT22;1766;53.490;10.174;2024-03-08T09:13:03;12.20;44.40
3504;DHT22;1766;53.490;10.174;2024-03-08T09:15:06;12.30;44.40
3504;DHT22;1766;53.490;10.174;2024-03-08T09:17:08;12.40;44.20
3504;DHT22;1766;53.490;10.174;2024-03-08T09:19:10;12.50;44.00
3504;DHT22;1766;53.490;10.174;2024-03-08T09:21:11;12.60;43.80
3504;DHT22;1766;53.490;10.174;2024-03-08T09:23:13;12.70;43.30
3504;DHT22;1766;53.490;10.174;2024-03-08T09:25:17;12.70;43.20
3504;DHT22;1766;53.490;10.174;2024-03-08T09:27:21;12.80;43.10
3504;DHT22;1766;53.490;10.174;2024-03-08T09:29:22;12.90;43.00
3504;DHT22;1766;53.490;10.174;2024-03-08T09:31:25;12.90;42.70
3504;DHT22;1766;53.490;10.174;2024-03-08T09:33:27;13.00;42.50
3504;DHT22;1766;53.490;10.174;2024-03-08T09:35:29;13.10;42.40
3504;DHT22;1766;53.490;10.174;2024-03-08T09:37:30;13.10;42.10
3504;DHT22;1766;53.490;10.174;2024-03-08T09:39:32;13.20;41.90
3504;DHT22;1766;53.490;10.174;2024-03-08T09:41:34;13.30;41.70
3504;DHT22;1766;53.490;10.174;2024-03-08T09:43:38;13.40;41.50
3504;DHT22;1766;53.490;10.174;2024-03-08T09:45:40;13.50;41.40
3504;DHT22;1766;53.490;10.174;2024-03-08T09:47:44;13.60;41.20
3504;DHT22;1766;53.490;10.174;2024-03-08T09:49:47;13.70;41.20
3504;DHT22;1766;53.490;10.174;2024-03-08T09:51:50;13.80;40.80
3504;DHT22;1766;53.490;10.174;2024-03-08T09:53:52;13.90;40.70
3504;DHT22;1766;53.490;10.174;2024-03-08T09:55:54;14.00;40.50
3504;DHT22;1766;53.490;10.174;2024-03-08T09:57:58;14.10;40.30
3504;DHT22;1766;53.490;10.174;2024-03-08T10:00:16;14.20;40.10
3504;DHT22;1766;53.490;10.174;2024-03-08T10:02:24;14.20;39.70
3504;DHT22;1766;53.490;10.174;2024-03-08T10:04:26;14.40;39.40
3504;DHT22;1766;53.490;10.174;2024-03-08T10:06:29;14.50;39.30
3504;DHT22;1766;53.490;10.174;2024-03-08T10:08:31;14.50;39.10
3504;DHT22;1766;53.490;10.174;2024-03-08T10:10:33;14.60;38.90
3504;DHT22;1766;53.490;10.174;2024-03-08T10:12:36;14.70;39.40
3504;DHT22;1766;53.490;10.174;2024-03-08T10:14:40;14.70;38.60
3504;DHT22;1766;53.490;10.174;2024-03-08T10:16:45;14.80;38.40
3504;DHT22;1766;53.490;10.174;2024-03-08T10:18:47;14.80;38.00
3504;DHT22;1766;53.490;10.174;2024-03-08T10:21:02;14.90;38.00
3504;DHT22;1766;53.490;10.174;2024-03-08T10:23:06;15.10;37.90
3504;DHT22;1766;53.490;10.174;2024-03-08T10:25:10;15.10;37.50
3504;DHT22;1766;53.490;10.174;2024-03-08T10:27:12;15.20;37.50
3504;DHT22;1766;53.490;10.174;2024-03-08T10:29:15;15.30;37.20
3504;DHT22;1766;53.490;10.174;2024-03-08T10:31:18;15.30;37.00
3504;DHT22;1766;53.490;10.174;2024-03-08T10:33:22;15.50;37.10
3504;DHT22;1766;53.490;10.174;2024-03-08T10:35:24;15.60;36.80
3504;DHT22;1766;53.490;10.174;2024-03-08T10:37:27;15.70;36.50
3504;DHT22;1766;53.490;10.174;2024-03-08T10:39:33;15.80;36.50
3504;DHT22;1766;53.490;10.174;2024-03-08T10:41:37;15.90;36.30
3504;DHT22;1766;53.490;10.174;2024-03-08T10:43:52;15.90;35.90
3504;DHT22;1766;53.490;10.174;2024-03-08T10:46:21;16.00;35.80
3504;DHT22;1766;53.490;10.174;2024-03-08T10:48:31;16.10;35.50
3504;DHT22;1766;53.490;10.174;2024-03-08T10:50:35;16.20;35.40
3504;DHT22;1766;53.490;10.174;2024-03-08T10:52:38;16.30;35.00
3504;DHT22;1766;53.490;10.174;2024-03-08T10:54:41;16.30;34.70
3504;DHT22;1766;53.490;10.174;2024-03-08T10:56:44;16.30;34.50
3504;DHT22;1766;53.490;10.174;2024-03-08T10:58:46;16.40;34.60
3504;DHT22;1766;53.490;10.174;2024-03-08T11:00:48;16.50;34.10
3504;DHT22;1766;53.490;10.174;2024-03-08T11:02:51;16.50;33.90
3504;DHT22;1766;53.490;10.174;2024-03-08T11:04:55;16.60;33.70
3504;DHT22;1766;53.490;10.174;2024-03-08T11:07:00;16.70;33.40
3504;DHT22;1766;53.490;10.174;2024-03-08T11:09:08;16.80;33.40
3504;DHT22;1766;53.490;10.174;2024-03-08T11:11:29;16.90;33.20
3504;DHT22;1766;53.490;10.174;2024-03-08T11:13:36;17.00;32.80
3504;DHT22;1766;53.490;10.174;2024-03-08T11:15:39;17.00;32.70
3504;DHT22;1766;53.490;10.174;2024-03-08T11:17:45;17.10;32.50
3504;DHT22;1766;53.490;10.174;2024-03-08T11:19:49;17.20;32.30
3504;DHT22;1766;53.490;10.174;2024-03-08T11:21:58;17.30;32.10
3504;DHT22;1766;53.490;10.174;2024-03-08T11:24:02;17.40;31.70
3504;DHT22;1766;53.490;10.174;2024-03-08T11:26:18;17.40;31.30
3504;DHT22;1766;53.490;10.174;2024-03-08T11:28:22;17.30;31.20
3504;DHT22;1766;53.490;10.174;2024-03-08T11:30:27;17.30;31.30
3504;DHT22;1766;53.490;10.174;2024-03-08T11:32:29;17.40;31.30
3504;DHT22;1766;53.490;10.174;2024-03-08T11:34:33;17.50;31.20
3504;DHT22;1766;53.490;10.174;2024-03-08T11:36:34;17.60;31.50
3504;DHT22;1766;53.490;10.174;2024-03-08T11:38:41;17.70;30.90
3504;DHT22;1766;53.490;10.174;2024-03-08T11:40:46;17.80;30.80
3504;DHT22;1766;53.490;10.174;2024-03-08T11:42:50;17.90;30.70
3504;DHT22;1766;53.490;10.174;2024-03-08T11:44:53;18.00;30.30
3504;DHT22;1766;53.490;10.174;2024-03-08T11:46:55;18.00;30.00
3504;DHT22;1766;53.490;10.174;2024-03-08T11:48:57;18.00;29.90
3504;DHT22;1766;53.490;10.174;2024-03-08T11:51:01;18.00;29.80
3504;DHT22;1766;53.490;10.174;2024-03-08T11:53:04;18.10;29.90
3504;DHT22;1766;53.490;10.174;2024-03-08T11:55:08;18.20;29.90
3504;DHT22;1766;53.490;10.174;2024-03-08T11:57:10;18.30;29.70
3504;DHT22;1766;53.490;10.174;2024-03-08T11:59:13;18.40;29.60
3504;DHT22;1766;53.490;10.174;2024-03-08T12:01:14;18.50;29.60
3504;DHT22;1766;53.490;10.174;2024-03-08T12:03:17;18.60;29.50
3504;DHT22;1766;53.490;10.174;2024-03-08T12:05:19;18.70;29.40
3504;DHT22;1766;53.490;10.174;2024-03-08T12:07:21;18.80;29.30
3504;DHT22;1766;53.490;10.174;2024-03-08T12:09:24;18.80;29.00
3504;DHT22;1766;53.490;10.174;2024-03-08T12:11:27;18.80;29.00
3504;DHT22;1766;53.490;10.174;2024-03-08T12:13:31;18.90;28.90
3504;DHT22;1766;53.490;10.174;2024-03-08T12:15:34;18.90;28.70
3504;DHT22;1766;53.490;10.174;2024-03-08T12:17:36;18.90;28.50
3504;DHT22;1766;53.490;10.174;2024-03-08T12:19:39;19.00;28.60
3504;DHT22;1766;53.490;10.174;2024-03-08T12:21:42;19.00;28.60
3504;DHT22;1766;53.490;10.174;2024-03-08T12:24:02;19.00;28.50
3504;DHT22;1766;53.490;10.174;2024-03-08T12:26:13;19.10;28.60
3504;DHT22;1766;53.490;10.174;2024-03-08T12:28:19;19.20;28.50
3504;DHT22;1766;53.490;10.174;2024-03-08T12:30:23;19.20;28.30
3504;DHT22;1766;53.490;10.174;2024-03-08T12:32:27;19.20;28.30
3504;DHT22;1766;53.490;10.174;2024-03-08T12:34:29;19.20;28.20
3504;DHT22;1766;53.490;10.174;2024-03-08T12:36:32;19.20;28.20
3504;DHT22;1766;53.490;10.174;2024-03-08T12:38:33;19.20;27.90
3504;DHT22;1766;53.490;10.174;2024-03-08T12:40:38;19.20;28.00
3504;DHT22;1766;53.490;10.174;2024-03-08T12:42:42;19.30;28.10
3504;DHT22;1766;53.490;10.174;2024-03-08T12:44:46;19.30;27.90
3504;DHT22;1766;53.490;10.174;2024-03-08T12:46:48;19.30;27.80
3504;DHT22;1766;53.490;10.174;2024-03-08T12:48:52;19.30;27.80
3504;DHT22;1766;53.490;10.174;2024-03-08T12:50:54;19.40;27.70
3504;DHT22;1766;53.490;10.174;2024-03-08T12:52:55;19.40;27.60
3504;DHT22;1766;53.490;10.174;2024-03-08T12:54:57;19.40;27.40
3504;DHT22;1766;53.490;10.174;2024-03-08T12:57:03;19.30;27.00
3504;DHT22;1766;53.490;10.174;2024-03-08T12:59:06;19.30;27.00
3504;DHT22;1766;53.490;10.174;2024-03-08T13:01:10;19.40;27.10
3504;DHT22;1766;53.490;10.174;2024-03-08T13:03:12;19.40;26.80
3504;DHT22;1766;53.490;10.174;2024-03-08T13:05:14;19.50;26.70
3504;DHT22;1766;53.490;10.174;2024-03-08T13:07:15;19.60;26.70
3504;DHT22;1766;53.490;10.174;2024-03-08T13:09:18;19.80;26.80
3504;DHT22;1766;53.490;10.174;2024-03-08T13:11:20;19.90;26.60
3504;DHT22;1766;53.490;10.174;2024-03-08T13:13:23;19.90;26.50
3504;DHT22;1766;53.490;10.174;2024-03-08T13:15:25;19.90;26.80
3504;DHT22;1766;53.490;10.174;2024-03-08T13:17:28;19.90;26.40